Time;durP1;ratioP1;P1;durP2;ratioP2;P2;SDS_P1;SDS_P2;PMS_P1;PMS_P2;Temp;Humidity;BMP_temperature;BMP_pressure;BME280_temperature;BME280_humidity;BME280_pressure;Samples;Min_cycle;Max_cycle;Signal;HPM_P1;HPM_P2
2023/06/09 00:01:44;;;;;;;5.93;2.92;;;;;;;16.49;68.58;99129.50;5062763;28;20520;-92
2023/06/09 00:04:13;;;;;;;7.50;2.75;;;;;;;16.36;68.57;99123.06;5064257;28;20043;-92
2023/06/09 00:06:39;;;;;;;4.25;2.65;;;;;;;16.35;69.00;99123.38;5060664;28;20059;-91
2023/06/09 00:09:06;;;;;;;5.82;3.10;;;;;;;16.35;69.02;99131.53;5067383;28;20024;-91
2023/06/09 00:11:34;;;;;;;3.95;2.65;;;;;;;16.38;69.04;99132.84;5063489;28;20036;-92
2023/06/09 00:14:02;;;;;;;7.38;3.08;;;;;;;16.26;68.96;99123.34;5065086;28;20036;-92
2023/06/09 00:16:28;;;;;;;6.82;2.97;;;;;;;16.17;69.10;99117.06;5046613;28;20551;-92
2023/06/09 00:18:57;;;;;;;5.43;2.75;;;;;;;16.16;69.41;99119.00;5044924;28;20127;-92
2023/06/09 00:21:25;;;;;;;4.47;2.75;;;;;;;16.20;69.42;99119.16;5044523;28;20206;-92
2023/06/09 00:23:52;;;;;;;3.75;2.72;;;;;;;16.16;69.38;99110.03;5060677;28;20028;-92
2023/06/09 00:26:18;;;;;;;4.85;2.83;;;;;;;16.14;69.57;99117.69;5060934;28;20037;-92
2023/06/09 00:28:44;;;;;;;5.72;3.03;;;;;;;16.02;69.50;99101.16;5061339;28;20035;-92
2023/06/09 00:31:10;;;;;;;5.18;2.83;;;;;;;15.83;69.79;99099.44;5028290;28;20024;-92
2023/06/09 00:33:36;;;;;;;4.82;3.20;;;;;;;15.86;70.09;99125.19;5061165;28;20048;-92
2023/06/09 00:36:01;;;;;;;9.20;2.55;;;;;;;15.83;70.36;99120.38;5044276;28;20025;-92
2023/06/09 00:38:27;;;;;;;3.92;2.55;;;;;;;15.86;70.29;99114.34;5027870;28;20126;-92
2023/06/09 00:40:54;;;;;;;4.20;2.45;;;;;;;15.82;69.92;99116.06;5043781;28;20039;-92
2023/06/09 00:43:20;;;;;;;5.90;3.13;;;;;;;15.69;70.23;99113.06;5061213;28;20414;-92
2023/06/09 00:45:47;;;;;;;3.38;2.42;;;;;;;15.70;70.43;99120.09;5045042;28;20025;-92
2023/06/09 00:48:13;;;;;;;3.13;2.60;;;;;;;15.65;70.47;99124.88;5077300;28;20048;-92
2023/06/09 00:50:39;;;;;;;4.10;2.80;;;;;;;15.58;70.81;99114.41;5054764;28;20020;-92
2023/06/09 00:53:05;;;;;;;4.95;3.13;;;;;;;15.75;70.30;99124.66;5060525;28;20005;-92
2023/06/09 00:55:33;;;;;;;4.85;2.90;;;;;;;15.90;69.57;99118.03;5060265;28;20027;-93
2023/06/09 00:58:00;;;;;;;4.07;2.83;;;;;;;16.06;69.03;99130.13;5098611;28;20042;-91
2023/06/09 01:00:29;;;;;;;4.47;2.63;;;;;;;16.10;68.93;99125.66;5047160;28;20020;-93
2023/06/09 01:03:02;;;;;;;3.35;2.40;;;;;;;15.93;69.38;99122.84;5047984;28;20024;-92
2023/06/09 01:05:34;;;;;;;3.78;2.78;;;;;;;15.79;69.81;99120.19;5063373;28;20509;-92
2023/06/09 01:08:00;;;;;;;;;;;;;;;15.76;70.37;99129.75;5047579;28;20088;-92
2023/06/09 01:10:51;;;;;;;5.78;2.90;;;;;;;15.62;70.98;99131.69;5097052;28;19912;-92
2023/06/09 01:13:35;;;;;;;4.75;2.53;;;;;;;15.60;71.07;99125.75;5079789;28;20028;-92
2023/06/09 01:16:08;;;;;;;4.43;2.92;;;;;;;15.48;71.36;99118.19;5060575;28;20063;-92
2023/06/09 01:18:36;;;;;;;5.93;3.08;;;;;;;15.50;71.90;99121.41;5057230;28;20103;-92
2023/06/09 01:21:12;;;;;;;7.10;4.25;;;;;;;15.54;71.69;99119.69;5043051;28;20025;-92
2023/06/09 01:24:16;;;;;;;7.82;3.67;;;;;;;15.43;71.56;99121.00;5073467;28;20081;-92
2023/06/09 01:26:42;;;;;;;7.53;3.67;;;;;;;15.45;71.75;99121.50;4997737;28;20493;-92
2023/06/09 01:29:08;;;;;;;6.57;3.45;;;;;;;15.46;71.36;99131.25;5051949;28;20050;-93
2023/06/09 01:31:35;;;;;;;6.30;3.83;;;;;;;15.43;72.09;99129.16;5079758;28;20061;-92
2023/06/09 01:34:01;;;;;;;5.90;3.50;;;;;;;15.35;71.81;99125.25;5080196;28;20444;-92
2023/06/09 01:36:28;;;;;;;7.20;3.35;;;;;;;15.31;71.76;99126.16;5062738;28;20040;-93
2023/06/09 01:38:53;;;;;;;5.72;3.13;;;;;;;15.32;71.78;99127.78;5079263;28;20131;-92
2023/06/09 01:41:20;;;;;;;6.25;3.60;;;;;;;15.07;72.32;99121.03;5062100;28;20032;-92
2023/06/09 01:43:45;;;;;;;6.60;3.15;;;;;;;15.08;71.94;99111.75;5045890;28;20119;-92
2023/06/09 01:46:11;;;;;;;14.70;3.13;;;;;;;15.09;72.00;99111.47;5045000;28;20028;-92
2023/06/09 01:48:59;;;;;;;5.18;3.20;;;;;;;15.04;72.33;99106.13;5079049;28;20024;-92
2023/06/09 01:51:28;;;;;;;9.18;4.47;;;;;;;15.10;72.62;99107.63;5079718;28;20121;-93
2023/06/09 01:53:57;;;;;;;7.47;3.80;;;;;;;15.07;72.77;99105.53;5079283;28;20031;-92
2023/06/09 01:56:43;;;;;;;7.88;4.50;;;;;;;15.01;73.20;99108.69;5062465;28;20035;-92
2023/06/09 01:59:12;;;;;;;6.20;4.18;;;;;;;14.99;73.34;99100.84;5046911;28;20027;-92
2023/06/09 02:01:38;;;;;;;12.27;4.00;;;;;;;15.04;73.28;99116.97;5062967;28;20031;-90
2023/06/09 02:04:04;;;;;;;8.73;3.70;;;;;;;15.01;72.97;99111.38;5061693;28;20031;-92
2023/06/09 02:06:32;;;;;;;7.47;4.10;;;;;;;14.96;73.34;99115.00;5062789;28;20055;-92
2023/06/09 02:09:00;;;;;;;6.97;3.78;;;;;;;14.88;73.15;99108.41;5078815;28;20055;-93
2023/06/09 02:11:26;;;;;;;5.72;3.58;;;;;;;14.86;73.15;99109.81;5079527;28;20024;-91
2023/06/09 02:13:54;;;;;;;7.38;3.53;;;;;;;14.82;73.04;99112.31;5078611;28;20046;-92
2023/06/09 02:16:20;;;;;;;7.40;3.45;;;;;;;14.82;73.06;99104.19;5062466;28;20024;-92
2023/06/09 02:18:47;;;;;;;7.00;3.50;;;;;;;14.83;72.80;99121.25;5078373;28;20031;-92
2023/06/09 02:21:15;;;;;;;5.95;3.17;;;;;;;14.75;73.41;99115.44;5062642;28;20020;-92
2023/06/09 02:23:41;;;;;;;6.13;3.13;;;;;;;14.77;73.06;99117.03;5061737;28;20039;-92
2023/06/09 02:26:09;;;;;;;6.47;3.30;;;;;;;14.78;73.37;99127.56;5045325;28;20394;-93
2023/06/09 02:28:35;;;;;;;5.20;3.88;;;;;;;14.68;73.58;99109.59;5062491;28;20118;-92
2023/06/09 02:31:01;;;;;;;4.68;3.55;;;;;;;14.71;73.14;99113.59;5061587;28;20028;-92
2023/06/09 02:33:27;;;;;;;5.40;3.60;;;;;;;14.65;73.54;99123.78;5061487;28;20031;-92
2023/06/09 02:35:53;;;;;;;9.38;3.38;;;;;;;14.63;73.74;99120.56;5079357;28;20024;-92
2023/06/09 02:38:21;;;;;;;7.47;3.35;;;;;;;14.60;73.94;99123.84;5078841;28;20161;-93
2023/06/09 02:40:49;;;;;;;7.80;3.53;;;;;;;14.61;73.57;99121.94;5072965;28;20055;-92
2023/06/09 02:43:16;;;;;;;5.28;3.58;;;;;;;14.52;74.11;99119.91;5045261;28;20065;-92
2023/06/09 02:45:44;;;;;;;5.95;3.60;;;;;;;14.58;74.02;99125.28;5053931;28;20028;-93
2023/06/09 02:48:10;;;;;;;7.00;3.50;;;;;;;14.56;73.70;99130.97;5081431;28;20078;-93
2023/06/09 02:50:36;;;;;;;6.70;3.53;;;;;;;14.63;73.76;99136.00;5061419;28;20476;-92
2023/06/09 02:53:01;;;;;;;6.45;3.50;;;;;;;14.58;73.65;99136.91;5057843;28;20035;-92
2023/06/09 02:55:28;;;;;;;4.40;3.20;;;;;;;14.59;73.56;99140.41;5047892;28;20063;-93
2023/06/09 02:57:54;;;;;;;6.65;3.15;;;;;;;14.59;73.56;99140.41;5065181;28;20059;-92
2023/06/09 03:00:20;;;;;;;5.22;3.35;;;;;;;14.46;73.52;99140.06;5061543;28;20047;-92
2023/06/09 03:02:46;;;;;;;5.05;3.38;;;;;;;14.50;73.16;99145.69;5062776;28;20070;-93
2023/06/09 03:05:12;;;;;;;5.47;3.83;;;;;;;14.54;73.42;99155.63;5045407;28;20065;-92
2023/06/09 03:07:37;;;;;;;4.57;3.40;;;;;;;14.56;73.40;99155.38;5029288;28;20052;-93
2023/06/09 03:10:05;;;;;;;4.93;3.28;;;;;;;14.41;73.45;99142.09;5045837;28;20107;-92
2023/06/09 03:12:32;;;;;;;5.88;3.58;;;;;;;14.40;73.96;99156.72;5063320;28;20060;-93
2023/06/09 03:14:58;;;;;;;14.85;3.97;;;;;;;14.40;73.95;99151.31;5062830;28;20036;-93
2023/06/09 03:17:25;;;;;;;9.85;3.65;;;;;;;14.39;74.20;99161.34;5056105;28;20055;-92
2023/06/09 03:19:53;;;;;;;5.20;3.72;;;;;;;14.30;74.46;99158.53;5050904;28;20027;-93
2023/06/09 03:22:20;;;;;;;7.03;3.90;;;;;;;14.25;74.67;99160.50;5061016;28;20096;-91
2023/06/09 03:24:48;;;;;;;17.00;3.63;;;;;;;14.25;73.92;99155.88;5061594;28;20032;-92
2023/06/09 03:27:15;;;;;;;5.03;3.38;;;;;;;14.28;74.19;99159.94;5063480;28;20036;-93
2023/06/09 03:29:41;;;;;;;7.38;4.13;;;;;;;14.19;74.46;99159.78;5077264;28;20040;-93
2023/06/09 03:32:07;;;;;;;8.52;4.07;;;;;;;14.23;73.98;99163.50;5046552;28;20109;-93
2023/06/09 03:34:33;;;;;;;11.40;4.10;;;;;;;14.19;73.86;99161.69;5073969;28;20106;-93
2023/06/09 03:37:00;;;;;;;6.53;3.10;;;;;;;14.23;73.75;99163.50;5055577;28;20035;-92
2023/06/09 03:39:26;;;;;;;7.47;3.60;;;;;;;14.25;73.52;99158.59;5062580;28;20133;-92
2023/06/09 03:41:54;;;;;;;13.50;3.63;;;;;;;14.27;73.73;99152.91;5061209;28;20047;-92
2023/06/09 03:44:22;;;;;;;13.20;4.28;;;;;;;14.32;73.51;99153.63;5044718;28;20035;-92
2023/06/09 03:46:48;;;;;;;5.78;3.42;;;;;;;14.34;73.80;99161.44;5078370;28;20491;-93
2023/06/09 03:49:14;;;;;;;8.57;3.42;;;;;;;14.32;73.98;99164.44;5044598;28;20082;-92
2023/06/09 03:51:40;;;;;;;12.23;3.80;;;;;;;14.35;73.68;99163.84;5060897;28;20020;-93
2023/06/09 03:54:06;;;;;;;5.45;3.90;;;;;;;14.45;73.61;99170.19;5060576;28;20004;-93
2023/06/09 03:56:33;;;;;;;11.65;4.80;;;;;;;14.44;74.08;99168.56;5060828;28;20046;-93
2023/06/09 03:58:59;;;;;;;8.20;5.30;;;;;;;14.52;74.21;99167.88;5061283;28;20463;-92
2023/06/09 04:01:25;;;;;;;9.00;5.70;;;;;;;14.42;73.98;99144.50;5069478;28;20472;-93
2023/06/09 04:03:51;;;;;;;10.55;5.25;;;;;;;14.59;74.22;99170.22;5065171;28;20037;-92
2023/06/09 04:06:17;;;;;;;9.18;5.70;;;;;;;14.71;73.53;99175.94;5044305;28;20068;-93
2023/06/09 04:08:44;;;;;;;13.68;6.15;;;;;;;14.66;73.55;99168.72;5060654;28;20031;-87
2023/06/09 04:11:10;;;;;;;12.00;5.50;;;;;;;14.75;73.41;99182.38;5069566;28;20036;-86
2023/06/09 04:13:36;;;;;;;11.27;5.55;;;;;;;14.71;73.52;99179.47;5043564;28;20028;-85
2023/06/09 04:16:02;;;;;;;14.15;5.65;;;;;;;14.68;73.16;99168.44;5043549;28;20028;-86
2023/06/09 04:18:27;;;;;;;6.65;4.13;;;;;;;14.87;72.80;99171.84;5068469;28;20490;-87
2023/06/09 04:20:55;;;;;;;5.90;4.15;;;;;;;14.95;71.99;99162.19;5026135;28;20025;-87
2023/06/09 04:23:22;;;;;;;4.80;3.60;;;;;;;15.02;72.26;99165.28;5026340;28;20035;-87
2023/06/09 04:25:49;;;;;;;7.72;4.80;;;;;;;15.10;72.29;99164.56;5042846;28;20074;-86
2023/06/09 04:28:17;;;;;;;8.48;4.10;;;;;;;15.19;71.82;99163.88;5042715;28;20032;-88
2023/06/09 04:30:43;;;;;;;19.08;10.63;;;;;;;15.28;72.07;99172.91;5027328;28;20062;-87
2023/06/09 04:33:09;;;;;;;15.27;5.07;;;;;;;15.36;71.41;99167.56;5025750;28;20025;-87
2023/06/09 04:35:37;;;;;;;10.35;5.38;;;;;;;15.43;71.51;99167.13;5058952;28;20035;-87
2023/06/09 04:38:03;;;;;;;10.73;4.60;;;;;;;15.57;71.32;99169.81;5042988;28;20032;-88
2023/06/09 04:40:37;;;;;;;7.75;4.28;;;;;;;15.62;70.58;99175.13;5025670;28;20040;-88
2023/06/09 04:43:06;;;;;;;7.65;4.15;;;;;;;15.81;69.88;99163.31;5082707;28;20035;-88
2023/06/09 04:45:34;;;;;;;5.82;4.18;;;;;;;15.87;69.33;99160.16;5064585;28;20078;-88
2023/06/09 04:48:01;;;;;;;7.47;4.10;;;;;;;16.04;70.21;99174.97;5067483;28;20581;-88
2023/06/09 04:50:29;;;;;;;11.35;4.80;;;;;;;16.14;68.80;99163.84;5054822;28;20398;-87
2023/06/09 04:52:58;;;;;;;10.13;3.80;;;;;;;16.36;68.21;99180.13;5043086;28;20036;-89
2023/06/09 04:55:26;;;;;;;6.80;3.40;;;;;;;16.45;67.86;99190.25;5038367;28;20033;-89
2023/06/09 04:57:57;;;;;;;7.32;3.63;;;;;;;16.57;67.25;99185.81;5066344;28;20094;-88
2023/06/09 05:00:26;;;;;;;;;;;;;;;16.64;67.34;99192.72;5062821;28;20083;-94
2023/06/09 05:02:53;;;;;;;9.52;4.00;;;;;;;16.52;66.81;99180.53;5062369;28;19919;-94
2023/06/09 05:05:19;;;;;;;10.48;5.43;;;;;;;16.46;67.41;99160.03;5050916;28;20021;-93
2023/06/09 05:07:47;;;;;;;7.50;3.97;;;;;;;16.60;66.56;99178.97;5068575;28;20033;-94
2023/06/09 05:10:16;;;;;;;7.82;4.28;;;;;;;16.65;66.60;99161.72;5064408;28;20046;-94
2023/06/09 05:12:43;;;;;;;11.70;6.65;;;;;;;16.80;66.59;99161.28;5046797;28;20028;-95
2023/06/09 05:15:18;;;;;;;10.20;4.22;;;;;;;16.86;66.25;99143.75;5051041;28;20028;-94
2023/06/09 05:17:49;;;;;;;7.55;3.80;;;;;;;16.88;65.79;99146.94;5082757;28;20024;-95
2023/06/09 05:20:16;;;;;;;5.47;3.42;;;;;;;17.14;65.75;99179.66;5050462;28;20027;-95
2023/06/09 05:22:42;;;;;;;8.25;3.30;;;;;;;17.11;66.09;99153.09;5049957;28;20028;-94
2023/06/09 05:25:17;;;;;;;8.73;3.60;;;;;;;17.23;65.46;99170.72;5049147;28;20098;-93
2023/06/09 05:27:42;;;;;;;5.22;3.42;;;;;;;17.30;64.86;99144.63;5066517;28;20025;-95
2023/06/09 05:30:25;;;;;;;7.45;3.17;;;;;;;17.47;64.54;99153.91;5050336;28;20119;-94
2023/06/09 05:32:53;;;;;;;6.32;3.50;;;;;;;17.49;64.68;99135.34;5051760;28;20032;-94
2023/06/09 05:35:27;;;;;;;13.50;3.50;;;;;;;17.56;63.74;99133.75;5048360;28;20039;-93
2023/06/09 05:37:52;;;;;;;7.72;3.50;;;;;;;17.75;63.43;99140.78;5066198;28;20116;-93
2023/06/09 05:40:20;;;;;;;8.68;3.33;;;;;;;17.92;61.78;99162.59;5049282;28;20461;-95
2023/06/09 05:42:49;;;;;;;5.03;3.55;;;;;;;18.04;62.15;99183.72;5065270;28;20032;-95
2023/06/09 05:45:16;;;;;;;5.68;3.40;;;;;;;17.95;62.70;99148.34;5052795;28;20086;-95
2023/06/09 05:47:42;;;;;;;9.98;5.05;;;;;;;18.02;62.12;99157.94;5049179;28;20072;-96
2023/06/09 05:50:08;;;;;;;12.43;8.43;;;;;;;18.02;62.68;99133.41;5030571;28;20114;-95
2023/06/09 05:52:36;;;;;;;8.55;3.90;;;;;;;18.28;62.36;99153.25;5043347;28;20059;-93
2023/06/09 05:55:06;;;;;;;10.60;5.15;;;;;;;18.46;61.50;99180.44;5042313;28;20060;-95
2023/06/09 05:57:33;;;;;;;;;;;;;;;18.49;61.14;99171.59;5044889;28;20037;-94
2023/06/09 06:00:07;;;;;;;7.22;4.10;;;;;;;18.60;61.19;99167.41;5049458;28;20003;-95
2023/06/09 06:05:22;;;;;;;6.13;4.07;;;;;;;18.81;59.76;99153.06;5026791;28;20044;-92
2023/06/09 06:07:48;;;;;;;4.15;3.10;;;;;;;18.87;59.39;99141.63;5017768;28;20128;-95
2023/06/09 06:10:22;;;;;;;7.18;3.30;;;;;;;19.15;59.16;99162.97;5027909;28;20029;-96
2023/06/09 06:13:12;;;;;;;9.52;3.03;;;;;;;19.15;58.52;99150.13;5066070;28;20033;-96
2023/06/09 06:15:46;;;;;;;9.57;3.40;;;;;;;19.21;58.40;99152.66;5039077;28;20476;-96
2023/06/09 06:18:15;;;;;;;113.30;70.80;;;;;;;19.30;58.18;99137.81;5067445;28;20036;-94
2023/06/09 06:20:46;;;;;;;9.38;4.43;;;;;;;19.45;58.27;99150.09;5071429;28;20059;-93
2023/06/09 06:23:16;;;;;;;3.70;2.40;;;;;;;19.59;56.46;99149.81;5046077;28;20104;-93
2023/06/09 06:25:41;;;;;;;6.45;2.83;;;;;;;19.79;56.03;99168.13;5052307;28;20037;-92
2023/06/09 06:28:08;;;;;;;4.85;2.78;;;;;;;19.84;56.11;99153.50;5034823;28;20049;-87
2023/06/09 06:30:37;;;;;;;4.90;3.03;;;;;;;19.89;55.58;99138.81;5043013;28;20037;-92
2023/06/09 06:33:06;;;;;;;7.10;4.22;;;;;;;19.94;55.09;99146.78;5047648;28;20025;-88
2023/06/09 06:35:32;;;;;;;4.53;2.60;;;;;;;20.18;53.25;99160.53;5036974;28;20035;-90
2023/06/09 06:38:21;;;;;;;;;;;;;;;;;;;;;
2023/06/09 06:41:12;;;;;;;4.75;2.17;;;;;;;20.39;51.44;99165.94;5056660;28;20092;-88
2023/06/09 06:47:11;;;;;;;6.40;2.83;;;;;;;20.44;50.33;99140.31;5045836;28;20161;-88
2023/06/09 06:49:37;;;;;;;3.42;1.90;;;;;;;20.63;48.68;99138.97;5000084;28;20049;-89
2023/06/09 06:52:04;;;;;;;4.85;2.47;;;;;;;20.79;47.90;99143.44;5026643;28;20036;-89
2023/06/09 06:54:31;;;;;;;2.97;1.98;;;;;;;20.99;46.88;99157.34;5023441;28;20037;-88
2023/06/09 06:56:58;;;;;;;4.35;2.72;;;;;;;21.02;48.07;99142.16;5022601;28;20060;-89
2023/06/09 06:59:24;;;;;;;7.63;4.60;;;;;;;21.05;48.58;99153.22;5022437;28;20079;-90
2023/06/09 07:01:50;;;;;;;4.85;2.40;;;;;;;21.12;47.78;99145.22;5033734;28;20053;-89
2023/06/09 07:04:16;;;;;;;7.22;2.20;;;;;;;21.10;46.86;99135.75;5015754;28;20044;-90
2023/06/09 07:06:54;;;;;;;2.90;2.17;;;;;;;21.19;45.95;99122.75;5027041;28;20083;-88
2023/06/09 07:09:20;;;;;;;5.57;2.20;;;;;;;21.36;46.81;99127.94;5070247;28;20032;-88
2023/06/09 07:11:46;;;;;;;5.20;2.95;;;;;;;21.55;46.56;99143.78;5048336;28;20027;-90
2023/06/09 07:14:11;;;;;;;6.53;3.35;;;;;;;21.68;44.99;99121.81;5050353;28;20027;-91
2023/06/09 07:16:43;;;;;;;3.92;1.70;;;;;;;21.84;42.94;99119.94;5052199;28;20027;-91
2023/06/09 07:19:15;;;;;;;2.70;1.90;;;;;;;21.94;44.58;99113.16;5058399;28;20374;-89
2023/06/09 07:21:48;;;;;;;7.63;4.53;;;;;;;22.02;45.18;99111.38;5060794;28;20063;-89
2023/06/09 07:24:14;;;;;;;11.88;7.68;;;;;;;22.07;45.67;99113.88;5030622;28;20031;-89
2023/06/09 07:29:35;;;;;;;9.38;5.85;;;;;;;22.26;45.39;99140.63;5048423;28;20037;-96
2023/06/09 07:32:03;;;;;;;6.05;2.30;;;;;;;22.30;45.75;99125.84;5015809;28;20021;-93
2023/06/09 07:34:33;;;;;;;4.43;2.60;;;;;;;22.39;45.96;99142.13;5025011;28;20025;-96
2023/06/09 07:37:04;;;;;;;4.20;2.28;;;;;;;22.50;46.58;99143.22;5013029;28;20083;-94
2023/06/09 07:39:34;;;;;;;5.63;2.30;;;;;;;22.41;48.23;99128.88;5046112;28;20101;-94
2023/06/09 07:42:03;;;;;;;4.00;2.55;;;;;;;22.48;47.84;99118.09;5046548;28;20117;-96
2023/06/09 07:44:31;;;;;;;15.32;2.90;;;;;;;22.81;47.87;99127.91;5036238;28;20462;-94
2023/06/09 07:47:04;;;;;;;3.70;2.30;;;;;;;22.76;46.64;99119.91;5012968;28;20029;-94
2023/06/09 07:49:29;;;;;;;3.55;2.38;;;;;;;23.00;46.88;99140.88;5034722;28;20519;-94
2023/06/09 07:51:55;;;;;;;7.90;3.05;;;;;;;22.98;46.89;99104.75;5029918;28;20021;-91
2023/06/09 07:54:24;;;;;;;4.90;2.95;;;;;;;23.16;46.83;99113.41;5026703;28;20044;-92
2023/06/09 07:56:50;;;;;;;5.95;2.92;;;;;;;23.14;47.52;99108.28;5047934;28;20025;-92
2023/06/09 07:59:28;;;;;;;4.30;2.42;;;;;;;23.40;45.83;99134.31;5029057;28;20021;-93
2023/06/09 08:01:53;;;;;;;4.13;2.63;;;;;;;23.32;46.19;99119.63;5052396;28;20036;-95
2023/06/09 08:04:19;;;;;;;11.48;5.70;;;;;;;23.39;47.01;99111.53;5052075;28;20053;-93
2023/06/09 08:06:45;;;;;;;18.75;12.40;;;;;;;23.45;45.77;99106.56;5051368;28;20040;-93
2023/06/09 08:09:30;;;;;;;7.25;3.47;;;;;;;23.62;45.34;99099.84;5033230;28;20044;-94
2023/06/09 08:11:56;;;;;;;8.10;4.97;;;;;;;23.73;45.86;99105.53;5053935;28;20033;-94
2023/06/09 08:14:23;;;;;;;7.53;3.60;;;;;;;23.85;46.02;99101.88;5050735;28;20025;-93
2023/06/09 08:16:52;;;;;;;4.32;2.63;;;;;;;23.89;43.35;99122.78;5049014;28;20012;-93
2023/06/09 08:19:17;;;;;;;3.78;2.70;;;;;;;24.08;42.88;99123.91;5069393;28;20186;-94
2023/06/09 08:21:43;;;;;;;11.18;3.40;;;;;;;23.94;42.38;99113.41;5050530;28;20029;-94
2023/06/09 08:30:57;;;;;;;4.65;2.28;;;;;;;24.45;42.20;99131.63;5089925;28;20033;-92
2023/06/09 08:33:23;;;;;;;2.88;2.13;;;;;;;24.27;41.46;99109.28;5064424;28;20068;-90
2023/06/09 08:35:51;;;;;;;6.53;3.30;;;;;;;24.20;38.21;99126.47;5048653;28;20068;-89
2023/06/09 08:38:17;;;;;;;4.55;2.00;;;;;;;24.07;38.63;99117.56;5063651;28;20032;-94
2023/06/09 08:40:42;;;;;;;4.63;2.17;;;;;;;24.14;39.43;99123.22;5039082;28;20020;-95
2023/06/09 08:43:26;;;;;;;3.22;2.00;;;;;;;23.99;38.47;99105.66;5031820;28;20031;-94
2023/06/09 08:45:52;;;;;;;6.30;2.80;;;;;;;24.27;39.66;99123.06;5035664;28;20033;-93
2023/06/09 08:48:24;;;;;;;4.40;2.40;;;;;;;24.16;40.56;99109.13;5040029;28;20024;-90
2023/06/09 08:50:52;;;;;;;6.03;2.58;;;;;;;24.19;40.12;99109.16;5064504;28;20039;-88
2023/06/09 08:53:17;;;;;;;4.32;2.40;;;;;;;24.27;38.78;99109.28;5043230;28;20401;-88
2023/06/09 08:55:43;;;;;;;5.28;2.30;;;;;;;24.34;38.65;99123.97;5059380;28;20035;-88
2023/06/09 08:58:12;;;;;;;4.93;2.80;;;;;;;24.31;38.44;99108.19;5060702;28;20036;-86
2023/06/09 09:00:38;;;;;;;4.32;2.15;;;;;;;24.47;38.58;99123.78;5062019;28;20044;-88
2023/06/09 09:03:08;;;;;;;3.28;2.28;;;;;;;24.32;38.83;99115.28;5058875;28;20039;-90
2023/06/09 09:05:35;;;;;;;2.73;2.10;;;;;;;24.38;37.03;99124.00;5061520;28;20048;-87
2023/06/09 09:08:03;;;;;;;7.63;3.00;;;;;;;24.32;33.50;99115.28;5077421;28;20369;-88
2023/06/09 09:10:29;;;;;;;3.35;2.20;;;;;;;24.44;34.61;99103.28;5042452;28;20055;-88
2023/06/09 09:12:54;;;;;;;5.05;2.55;;;;;;;24.60;36.34;99103.19;5044099;28;20032;-87
2023/06/09 09:15:23;;;;;;;7.53;2.47;;;;;;;24.60;36.61;99098.47;5058221;28;20040;-86
2023/06/09 09:17:51;;;;;;;3.17;2.22;;;;;;;24.45;36.54;99091.13;5055558;28;20031;-88
2023/06/09 09:20:17;;;;;;;3.67;2.20;;;;;;;24.65;37.00;99100.09;5040832;28;20096;-87
2023/06/09 09:22:52;;;;;;;5.00;2.17;;;;;;;24.75;36.92;99110.50;5044046;28;20732;-89
2023/06/09 09:25:26;;;;;;;4.15;1.90;;;;;;;24.84;36.72;99112.19;5078363;28;20111;-87
2023/06/09 09:28:10;;;;;;;5.10;2.13;;;;;;;24.85;35.48;99106.31;5060384;28;20048;-88
2023/06/09 09:30:48;;;;;;;3.50;2.10;;;;;;;24.94;35.38;99109.56;5048214;28;20032;-88
2023/06/09 09:33:34;;;;;;;4.45;3.03;;;;;;;24.97;35.60;99106.09;5053070;28;20594;-89
2023/06/09 09:36:01;;;;;;;3.85;2.08;;;;;;;24.95;35.48;99086.41;5063378;28;20139;-89
2023/06/09 09:38:27;;;;;;;7.28;2.90;;;;;;;25.03;34.89;99087.28;5025421;28;20090;-88
2023/06/09 09:40:59;;;;;;;4.15;2.78;;;;;;;25.06;34.23;99083.00;5031687;28;20032;-95
2023/06/09 09:43:26;;;;;;;4.05;1.98;;;;;;;25.13;33.22;99075.63;5044427;28;20037;-93
2023/06/09 09:45:54;;;;;;;3.33;2.10;;;;;;;25.19;33.77;99103.63;5027617;28;20128;-96
2023/06/09 09:48:22;;;;;;;2.92;1.90;;;;;;;25.07;33.38;99071.59;5016556;28;20459;-96
2023/06/09 09:50:48;;;;;;;3.70;2.20;;;;;;;25.23;34.27;99074.19;5043388;28;20030;-86
2023/06/09 09:53:14;;;;;;;3.60;2.38;;;;;;;25.37;34.72;99099.19;5042187;28;20498;-88
2023/06/09 09:55:44;;;;;;;4.50;2.45;;;;;;;25.34;33.75;99088.13;5025224;28;20092;-89
2023/06/09 09:58:16;;;;;;;4.22;2.03;;;;;;;25.35;33.29;99073.16;5044851;28;20194;-93
2023/06/09 10:00:55;;;;;;;3.97;2.38;;;;;;;25.38;34.34;99064.13;5052871;28;20434;-92
2023/06/09 10:03:20;;;;;;;4.45;2.13;;;;;;;25.52;32.83;99069.81;5036567;28;20427;-93
2023/06/09 10:06:13;;;;;;;4.15;2.40;;;;;;;25.65;33.04;99053.00;5000242;28;20057;-93
2023/06/09 10:08:42;;;;;;;4.60;2.65;;;;;;;25.93;33.56;99075.41;5011584;28;20132;-94
2023/06/09 10:11:08;;;;;;;3.75;2.55;;;;;;;25.87;33.52;99051.28;5023812;28;20049;-96
2023/06/09 10:13:33;;;;;;;3.53;2.30;;;;;;;26.02;33.25;99058.53;5015614;28;20515;-85
2023/06/09 10:16:05;;;;;;;4.68;2.20;;;;;;;26.17;32.36;99059.47;5009167;28;20393;-85
2023/06/09 10:18:31;;;;;;;6.63;3.50;;;;;;;26.20;32.25;99058.69;5018275;28;20047;-87
2023/06/09 10:20:56;;;;;;;4.07;2.95;;;;;;;26.32;31.03;99061.16;5016378;28;20034;-86
2023/06/09 10:23:23;;;;;;;2.75;2.10;;;;;;;26.33;30.37;99070.22;5031527;28;20044;-89
2023/06/09 10:25:54;;;;;;;3.17;1.90;;;;;;;26.04;29.47;99044.34;5028303;28;20025;-89
2023/06/09 10:28:20;;;;;;;6.53;1.95;;;;;;;26.11;29.83;99055.47;5027108;28;20041;-87
2023/06/09 10:31:15;;;;;;;4.03;2.35;;;;;;;26.26;29.44;99079.25;5019799;28;20025;-87
2023/06/09 10:33:44;;;;;;;4.88;2.53;;;;;;;26.11;28.98;99050.75;5010709;28;20044;-88
2023/06/09 10:36:12;;;;;;;5.78;2.45;;;;;;;26.18;28.33;99058.28;5068201;28;20089;-86
2023/06/09 10:38:41;;;;;;;4.85;2.00;;;;;;;26.07;29.05;99049.91;5057346;28;20032;-93
2023/06/09 10:41:12;;;;;;;3.78;2.10;;;;;;;26.06;27.69;99048.31;5063951;28;20034;-85
2023/06/09 10:43:50;;;;;;;2.78;2.00;;;;;;;26.20;27.77;99061.47;5075763;28;20041;-86
2023/06/09 10:50:11;;;;;;;3.25;2.20;;;;;;;25.92;27.03;99040.72;5082068;28;20019;-89
2023/06/09 10:56:55;;;;;;;5.33;2.63;;;;;;;26.24;28.96;99053.22;5064649;28;20115;-87
2023/06/09 10:59:30;;;;;;;4.82;3.97;;;;;;;26.15;26.76;99054.31;5007986;28;20038;-86
2023/06/09 11:02:21;;;;;;;4.50;2.40;;;;;;;26.16;27.65;99055.13;5061989;28;20417;-88
2023/06/09 11:05:19;;;;;;;3.67;2.33;;;;;;;26.22;28.01;99048.06;5102986;28;20192;-94
2023/06/09 11:07:46;;;;;;;3.42;2.03;;;;;;;26.18;27.92;99027.94;5049856;28;20044;-94
2023/06/09 11:10:11;;;;;;;3.33;2.10;;;;;;;26.26;27.73;99037.84;5055530;28;20036;-94
2023/06/09 11:12:42;;;;;;;4.07;2.20;;;;;;;26.19;27.83;99046.09;5090330;28;20024;-93
2023/06/09 11:15:10;;;;;;;6.30;2.17;;;;;;;26.12;27.02;99032.22;5067108;28;20119;-93
2023/06/09 11:17:40;;;;;;;3.65;2.13;;;;;;;26.16;26.73;99033.03;5033836;28;20036;-95
2023/06/09 11:20:22;;;;;;;3.10;2.05;;;;;;;26.33;27.35;99040.66;5048760;28;20056;-93
2023/06/09 11:22:51;;;;;;;3.50;2.15;;;;;;;26.32;26.70;99041.06;5063255;28;20051;-95
2023/06/09 11:25:20;;;;;;;4.65;2.00;;;;;;;26.38;26.36;99032.03;5050093;28;20037;-94
2023/06/09 11:28:12;;;;;;;2.63;1.77;;;;;;;26.49;24.84;99036.84;5046499;28;20036;-93
2023/06/09 11:31:00;;;;;;;3.58;2.20;;;;;;;26.43;25.35;99030.88;5067500;28;20033;-94
2023/06/09 11:33:48;;;;;;;3.25;1.98;;;;;;;26.47;24.67;99034.44;5050912;28;20036;-90
2023/06/09 11:36:18;;;;;;;4.20;3.05;;;;;;;26.41;24.98;99017.44;5062573;28;20035;-93
2023/06/09 11:38:45;;;;;;;5.28;2.63;;;;;;;26.46;25.82;99018.25;5049608;28;20036;-91
2023/06/09 11:41:15;;;;;;;5.18;2.50;;;;;;;26.58;25.29;99026.25;5049685;28;20017;-92
2023/06/09 11:43:49;;;;;;;3.17;1.98;;;;;;;26.40;24.92;98999.31;5047670;28;20499;-92
2023/06/09 11:46:15;;;;;;;6.80;2.30;;;;;;;26.46;24.76;99018.25;5045342;28;20021;-94
2023/06/09 11:48:59;;;;;;;5.25;2.33;;;;;;;26.57;24.70;99010.88;5031604;28;20020;-92
2023/06/09 11:51:24;;;;;;;3.20;1.90;;;;;;;26.35;23.57;98996.91;5015406;28;20021;-92
2023/06/09 11:53:50;;;;;;;4.85;3.38;;;;;;;26.50;23.87;99000.56;5027709;28;20023;-92
2023/06/09 11:56:17;;;;;;;4.22;2.20;;;;;;;26.42;23.11;98993.41;5028866;28;20025;-93
2023/06/09 11:58:43;;;;;;;4.00;2.70;;;;;;;26.55;24.01;98977.31;5028891;28;20032;-93
2023/06/09 12:01:09;;;;;;;4.65;2.22;;;;;;;26.83;23.63;98990.50;5033200;28;20402;-93
2023/06/09 12:03:36;;;;;;;3.55;2.30;;;;;;;26.93;23.90;98994.50;5029907;28;20040;-92
2023/06/09 12:06:02;;;;;;;2.80;2.10;;;;;;;26.79;22.78;98973.09;5038873;28;20406;-95
2023/06/09 12:08:27;;;;;;;2.92;2.10;;;;;;;26.77;22.52;98984.56;5031870;28;20028;-92